sensor_id;sensor_type;location;lat;lon;timestamp;temperature;humidity
19888;DHT22;10106;51.332;12.336;2023-03-30T00:00:48;10.40;99.90
19888;DHT22;10106;51.332;12.336;2023-03-30T00:03:14;10.40;99.90
19888;DHT22;10106;51.332;12.336;2023-03-30T00:05:46;10.30;99.90
19888;DHT22;10106;51.332;12.336;2023-03-30T00:08:12;10.30;99.90
19888;DHT22;10106;51.332;12.336;2023-03-30T00:10:43;10.30;99.90
19888;DHT22;10106;51.332;12.336;2023-03-30T00:13:10;10.40;99.90
19888;DHT22;10106;51.332;12.336;2023-03-30T00:15:36;10.30;99.90
19888;DHT22;10106;51.332;12.336;2023-03-30T00:18:02;10.30;99.90
19888;DHT22;10106;51.332;12.336;2023-03-30T00:20:28;10.30;99.90
19888;DHT22;10106;51.332;12.336;2023-03-30T00:22:57;10.30;99.90
19888;DHT22;10106;51.332;12.336;2023-03-30T00:25:23;10.20;99.90
19888;DHT22;10106;51.332;12.336;2023-03-30T00:27:49;10.20;99.90
19888;DHT22;10106;51.332;12.336;2023-03-30T00:30:16;10.20;99.90
19888;DHT22;10106;51.332;12.336;2023-03-30T00:32:43;10.20;99.90
19888;DHT22;10106;51.332;12.336;2023-03-30T00:35:10;10.20;99.90
19888;DHT22;10106;51.332;12.336;2023-03-30T00:37:37;10.10;99.90
19888;DHT22;10106;51.332;12.336;2023-03-30T00:40:05;10.10;99.90
19888;DHT22;10106;51.332;12.336;2023-03-30T00:42:36;10.10;99.90
19888;DHT22;10106;51.332;12.336;2023-03-30T00:45:09;10.10;99.90
19888;DHT22;10106;51.332;12.336;2023-03-30T00:47:41;10.10;99.90
19888;DHT22;10106;51.332;12.336;2023-03-30T00:50:08;10.10;99.90
19888;DHT22;10106;51.332;12.336;2023-03-30T00:52:34;10.10;99.90
19888;DHT22;10106;51.332;12.336;2023-03-30T00:55:03;10.10;99.90
19888;DHT22;10106;51.332;12.336;2023-03-30T00:57:29;10.10;99.90
19888;DHT22;10106;51.332;12.336;2023-03-30T00:59:56;10.10;99.90
19888;DHT22;10106;51.332;12.336;2023-03-30T01:02:22;10.10;99.90
19888;DHT22;10106;51.332;12.336;2023-03-30T01:04:51;10.10;99.90
19888;DHT22;10106;51.332;12.336;2023-03-30T01:07:18;10.20;99.90
19888;DHT22;10106;51.332;12.336;2023-03-30T01:09:49;10.20;99.90
19888;DHT22;10106;51.332;12.336;2023-03-30T01:12:16;10.20;99.90
19888;DHT22;10106;51.332;12.336;2023-03-30T01:14:42;10.10;99.90
19888;DHT22;10106;51.332;12.336;2023-03-30T01:17:53;10.10;99.90
19888;DHT22;10106;51.332;12.336;2023-03-30T01:41:34;10.00;99.90
19888;DHT22;10106;51.332;12.336;2023-03-30T01:46:50;10.10;99.90
19888;DHT22;10106;51.332;12.336;2023-03-30T01:49:26;10.10;99.90
19888;DHT22;10106;51.332;12.336;2023-03-30T01:52:04;10.10;99.90
19888;DHT22;10106;51.332;12.336;2023-03-30T01:54:35;10.20;99.90
19888;DHT22;10106;51.332;12.336;2023-03-30T01:57:17;10.20;99.90
19888;DHT22;10106;51.332;12.336;2023-03-30T02:02:20;10.20;99.90
19888;DHT22;10106;51.332;12.336;2023-03-30T02:04:49;10.20;99.90
19888;DHT22;10106;51.332;12.336;2023-03-30T02:07:22;10.20;99.90
19888;DHT22;10106;51.332;12.336;2023-03-30T02:09:52;10.20;99.90
19888;DHT22;10106;51.332;12.336;2023-03-30T02:12:20;10.20;99.90
19888;DHT22;10106;51.332;12.336;2023-03-30T02:14:48;10.20;99.90
19888;DHT22;10106;51.332;12.336;2023-03-30T02:17:15;10.20;99.90
19888;DHT22;10106;51.332;12.336;2023-03-30T02:19:46;10.10;99.90
19888;DHT22;10106;51.332;12.336;2023-03-30T02:22:16;10.10;99.90
19888;DHT22;10106;51.332;12.336;2023-03-30T02:24:44;10.10;99.90
19888;DHT22;10106;51.332;12.336;2023-03-30T02:27:10;10.10;99.90
19888;DHT22;10106;51.332;12.336;2023-03-30T02:29:38;10.10;99.90
19888;DHT22;10106;51.332;12.336;2023-03-30T02:32:20;10.10;99.90
19888;DHT22;10106;51.332;12.336;2023-03-30T02:35:06;10.10;99.90
19888;DHT22;10106;51.332;12.336;2023-03-30T02:40:31;10.20;99.90
19888;DHT22;10106;51.332;12.336;2023-03-30T02:51:53;10.10;99.90
19888;DHT22;10106;51.332;12.336;2023-03-30T03:02:33;10.10;99.90
19888;DHT22;10106;51.332;12.336;2023-03-30T03:05:00;10.10;99.90
19888;DHT22;10106;51.332;12.336;2023-03-30T03:07:29;10.00;99.90
19888;DHT22;10106;51.332;12.336;2023-03-30T03:09:58;10.00;99.90
19888;DHT22;10106;51.332;12.336;2023-03-30T03:12:24;10.00;99.90
19888;DHT22;10106;51.332;12.336;2023-03-30T03:14:50;10.00;99.90
19888;DHT22;10106;51.332;12.336;2023-03-30T03:17:16;10.00;99.90
19888;DHT22;10106;51.332;12.336;2023-03-30T03:19:47;9.90;99.90
19888;DHT22;10106;51.332;12.336;2023-03-30T03:22:13;10.00;99.90
19888;DHT22;10106;51.332;12.336;2023-03-30T03:24:39;10.00;99.90
19888;DHT22;10106;51.332;12.336;2023-03-30T03:27:05;9.90;99.90
19888;DHT22;10106;51.332;12.336;2023-03-30T03:29:31;9.90;99.90
19888;DHT22;10106;51.332;12.336;2023-03-30T03:31:58;9.90;99.90
19888;DHT22;10106;51.332;12.336;2023-03-30T03:34:24;9.80;99.90
19888;DHT22;10106;51.332;12.336;2023-03-30T03:36:56;9.80;99.90
19888;DHT22;10106;51.332;12.336;2023-03-30T03:39:22;9.70;99.90
19888;DHT22;10106;51.332;12.336;2023-03-30T03:41:48;9.70;99.90
19888;DHT22;10106;51.332;12.336;2023-03-30T03:44:13;9.70;99.90
19888;DHT22;10106;51.332;12.336;2023-03-30T03:46:39;9.70;99.90
19888;DHT22;10106;51.332;12.336;2023-03-30T03:49:06;9.80;99.90
19888;DHT22;10106;51.332;12.336;2023-03-30T03:51:31;9.90;99.90
19888;DHT22;10106;51.332;12.336;2023-03-30T03:54:00;9.90;99.90
19888;DHT22;10106;51.332;12.336;2023-03-30T03:56:26;10.00;99.90
19888;DHT22;10106;51.332;12.336;2023-03-30T03:58:52;9.90;99.90
19888;DHT22;10106;51.332;12.336;2023-03-30T04:01:20;9.90;99.90
19888;DHT22;10106;51.332;12.336;2023-03-30T04:03:46;9.80;99.90
19888;DHT22;10106;51.332;12.336;2023-03-30T04:06:12;9.90;99.90
19888;DHT22;10106;51.332;12.336;2023-03-30T04:08:38;9.90;99.90
19888;DHT22;10106;51.332;12.336;2023-03-30T04:11:13;9.80;99.90
19888;DHT22;10106;51.332;12.336;2023-03-30T04:13:39;9.80;99.90
19888;DHT22;10106;51.332;12.336;2023-03-30T04:16:06;9.90;99.90
19888;DHT22;10106;51.332;12.336;2023-03-30T04:18:32;9.90;99.90
19888;DHT22;10106;51.332;12.336;2023-03-30T04:21:00;9.90;99.90
19888;DHT22;10106;51.332;12.336;2023-03-30T04:23:34;10.00;99.90
19888;DHT22;10106;51.332;12.336;2023-03-30T04:26:01;10.00;99.90
19888;DHT22;10106;51.332;12.336;2023-03-30T04:28:28;10.00;99.90
19888;DHT22;10106;51.332;12.336;2023-03-30T04:31:05;10.10;99.90
19888;DHT22;10106;51.332;12.336;2023-03-30T04:33:35;10.10;99.90
19888;DHT22;10106;51.332;12.336;2023-03-30T04:36:03;10.20;99.90
19888;DHT22;10106;51.332;12.336;2023-03-30T04:38:29;10.20;99.90
19888;DHT22;10106;51.332;12.336;2023-03-30T04:40:55;10.20;99.90
19888;DHT22;10106;51.332;12.336;2023-03-30T04:43:22;10.20;99.90
19888;DHT22;10106;51.332;12.336;2023-03-30T04:45:57;10.20;99.90
19888;DHT22;10106;51.332;12.336;2023-03-30T04:48:23;10.20;99.90
19888;DHT22;10106;51.332;12.336;2023-03-30T04:50:50;10.20;99.90
19888;DHT22;10106;51.332;12.336;2023-03-30T04:53:17;10.20;99.90
19888;DHT22;10106;51.332;12.336;2023-03-30T04:55:47;10.30;99.90
19888;DHT22;10106;51.332;12.336;2023-03-30T04:58:13;10.30;99.90
19888;DHT22;10106;51.332;12.336;2023-03-30T05:05:50;10.50;99.90
19888;DHT22;10106;51.332;12.336;2023-03-30T05:08:19;10.40;99.90
19888;DHT22;10106;51.332;12.336;2023-03-30T05:10:44;10.40;99.90
19888;DHT22;10106;51.332;12.336;2023-03-30T05:13:10;10.40;99.90
19888;DHT22;10106;51.332;12.336;2023-03-30T05:15:36;10.40;99.90
19888;DHT22;10106;51.332;12.336;2023-03-30T05:18:02;10.40;99.90
19888;DHT22;10106;51.332;12.336;2023-03-30T05:20:27;10.40;99.90
19888;DHT22;10106;51.332;12.336;2023-03-30T05:22:53;10.50;99.90
19888;DHT22;10106;51.332;12.336;2023-03-30T05:25:19;10.50;99.90
19888;DHT22;10106;51.332;12.336;2023-03-30T05:27:44;10.50;99.90
19888;DHT22;10106;51.332;12.336;2023-03-30T05:30:11;10.60;99.90
19888;DHT22;10106;51.332;12.336;2023-03-30T05:32:37;10.60;99.90
19888;DHT22;10106;51.332;12.336;2023-03-30T05:35:03;10.60;99.90
19888;DHT22;10106;51.332;12.336;2023-03-30T05:37:28;10.70;99.90
19888;DHT22;10106;51.332;12.336;2023-03-30T05:39:54;10.70;99.90
19888;DHT22;10106;51.332;12.336;2023-03-30T05:42:20;10.70;99.90
19888;DHT22;10106;51.332;12.336;2023-03-30T05:44:48;10.80;99.90
19888;DHT22;10106;51.332;12.336;2023-03-30T05:47:14;10.80;99.90
19888;DHT22;10106;51.332;12.336;2023-03-30T05:49:41;10.80;99.90
19888;DHT22;10106;51.332;12.336;2023-03-30T05:52:07;10.80;99.90
19888;DHT22;10106;51.332;12.336;2023-03-30T05:54:33;10.90;99.90
19888;DHT22;10106;51.332;12.336;2023-03-30T05:56:58;10.90;99.90
19888;DHT22;10106;51.332;12.336;2023-03-30T05:59:24;11.00;99.90
19888;DHT22;10106;51.332;12.336;2023-03-30T06:01:50;11.00;99.90
19888;DHT22;10106;51.332;12.336;2023-03-30T06:04:16;11.10;99.90
19888;DHT22;10106;51.332;12.336;2023-03-30T06:06:42;11.10;99.90
19888;DHT22;10106;51.332;12.336;2023-03-30T06:09:07;11.20;99.90
19888;DHT22;10106;51.332;12.336;2023-03-30T06:11:33;11.30;99.90
19888;DHT22;10106;51.332;12.336;2023-03-30T06:13:59;11.30;99.90
19888;DHT22;10106;51.332;12.336;2023-03-30T06:16:25;11.40;99.90
19888;DHT22;10106;51.332;12.336;2023-03-30T06:18:53;11.40;99.90
19888;DHT22;10106;51.332;12.336;2023-03-30T06:21:19;11.50;99.90
19888;DHT22;10106;51.332;12.336;2023-03-30T06:23:45;11.60;99.90
19888;DHT22;10106;51.332;12.336;2023-03-30T06:26:11;11.70;99.90
19888;DHT22;10106;51.332;12.336;2023-03-30T06:28:36;11.90;99.90
19888;DHT22;10106;51.332;12.336;2023-03-30T06:31:09;11.90;99.90
19888;DHT22;10106;51.332;12.336;2023-03-30T06:33:35;12.10;99.90
19888;DHT22;10106;51.332;12.336;2023-03-30T06:36:02;12.20;99.90
19888;DHT22;10106;51.332;12.336;2023-03-30T06:38:28;12.40;99.90
19888;DHT22;10106;51.332;12.336;2023-03-30T06:40:54;12.60;99.90
19888;DHT22;10106;51.332;12.336;2023-03-30T06:43:23;12.90;99.90
19888;DHT22;10106;51.332;12.336;2023-03-30T06:45:54;13.10;99.90
19888;DHT22;10106;51.332;12.336;2023-03-30T06:48:22;13.60;99.90
19888;DHT22;10106;51.332;12.336;2023-03-30T06:50:51;14.50;99.90
19888;DHT22;10106;51.332;12.336;2023-03-30T06:53:18;16.00;99.90
19888;DHT22;10106;51.332;12.336;2023-03-30T06:55:44;17.80;99.90
19888;DHT22;10106;51.332;12.336;2023-03-30T06:58:14;19.80;99.90
19888;DHT22;10106;51.332;12.336;2023-03-30T07:00:40;21.30;99.90
19888;DHT22;10106;51.332;12.336;2023-03-30T07:03:06;21.70;99.90
19888;DHT22;10106;51.332;12.336;2023-03-30T07:05:33;20.90;99.90
19888;DHT22;10106;51.332;12.336;2023-03-30T07:07:59;19.60;99.90
19888;DHT22;10106;51.332;12.336;2023-03-30T07:10:25;18.60;99.90
19888;DHT22;10106;51.332;12.336;2023-03-30T07:12:51;18.10;99.90
19888;DHT22;10106;51.332;12.336;2023-03-30T07:15:16;17.80;99.90
19888;DHT22;10106;51.332;12.336;2023-03-30T07:17:42;17.50;99.90
19888;DHT22;10106;51.332;12.336;2023-03-30T07:20:09;17.30;99.90
19888;DHT22;10106;51.332;12.336;2023-03-30T07:22:36;17.50;99.90
19888;DHT22;10106;51.332;12.336;2023-03-30T07:25:03;18.20;99.90
19888;DHT22;10106;51.332;12.336;2023-03-30T07:27:28;19.30;99.90
19888;DHT22;10106;51.332;12.336;2023-03-30T07:29:54;20.40;99.90
19888;DHT22;10106;51.332;12.336;2023-03-30T07:32:20;20.50;99.90
19888;DHT22;10106;51.332;12.336;2023-03-30T07:34:46;20.40;99.90
19888;DHT22;10106;51.332;12.336;2023-03-30T07:37:14;19.80;99.90
19888;DHT22;10106;51.332;12.336;2023-03-30T07:39:40;19.40;99.90
19888;DHT22;10106;51.332;12.336;2023-03-30T07:42:06;18.90;99.90
19888;DHT22;10106;51.332;12.336;2023-03-30T07:44:32;18.10;99.90
19888;DHT22;10106;51.332;12.336;2023-03-30T07:46:58;17.30;99.90
19888;DHT22;10106;51.332;12.336;2023-03-30T07:49:24;17.20;99.90
19888;DHT22;10106;51.332;12.336;2023-03-30T07:51:52;17.60;99.90
19888;DHT22;10106;51.332;12.336;2023-03-30T07:54:18;18.50;99.90
19888;DHT22;10106;51.332;12.336;2023-03-30T07:56:44;19.30;99.90
19888;DHT22;10106;51.332;12.336;2023-03-30T07:59:13;20.30;99.90
19888;DHT22;10106;51.332;12.336;2023-03-30T08:01:39;20.20;99.90
19888;DHT22;10106;51.332;12.336;2023-03-30T08:04:07;19.60;99.90
19888;DHT22;10106;51.332;12.336;2023-03-30T08:06:35;18.80;99.90
19888;DHT22;10106;51.332;12.336;2023-03-30T08:09:01;18.00;99.90
19888;DHT22;10106;51.332;12.336;2023-03-30T08:11:29;17.50;99.90
19888;DHT22;10106;51.332;12.336;2023-03-30T08:13:55;17.10;99.90
19888;DHT22;10106;51.332;12.336;2023-03-30T08:16:21;16.60;99.90
19888;DHT22;10106;51.332;12.336;2023-03-30T08:18:47;16.30;99.90
19888;DHT22;10106;51.332;12.336;2023-03-30T08:21:13;15.90;99.90
19888;DHT22;10106;51.332;12.336;2023-03-30T08:23:39;15.80;99.90
19888;DHT22;10106;51.332;12.336;2023-03-30T08:26:04;15.70;99.90
19888;DHT22;10106;51.332;12.336;2023-03-30T08:28:30;15.60;99.90
19888;DHT22;10106;51.332;12.336;2023-03-30T08:31:05;15.60;99.90
19888;DHT22;10106;51.332;12.336;2023-03-30T08:33:31;15.50;99.90
19888;DHT22;10106;51.332;12.336;2023-03-30T08:35:56;15.30;99.90
19888;DHT22;10106;51.332;12.336;2023-03-30T08:38:22;15.20;99.90
19888;DHT22;10106;51.332;12.336;2023-03-30T08:40:49;15.10;99.90
19888;DHT22;10106;51.332;12.336;2023-03-30T08:43:41;14.90;99.90
19888;DHT22;10106;51.332;12.336;2023-03-30T08:46:13;14.80;99.90
19888;DHT22;10106;51.332;12.336;2023-03-30T08:48:42;14.70;99.90
19888;DHT22;10106;51.332;12.336;2023-03-30T08:51:18;14.60;99.90
19888;DHT22;10106;51.332;12.336;2023-03-30T08:53:46;14.50;99.90
19888;DHT22;10106;51.332;12.336;2023-03-30T08:56:19;14.40;99.90
19888;DHT22;10106;51.332;12.336;2023-03-30T09:01:52;14.20;99.90
19888;DHT22;10106;51.332;12.336;2023-03-30T09:06:56;14.00;99.90
19888;DHT22;10106;51.332;12.336;2023-03-30T09:09:29;14.10;99.90
19888;DHT22;10106;51.332;12.336;2023-03-30T09:12:04;14.10;99.90
19888;DHT22;10106;51.332;12.336;2023-03-30T09:14:36;14.20;99.90
19888;DHT22;10106;51.332;12.336;2023-03-30T09:17:11;14.30;99.90
19888;DHT22;10106;51.332;12.336;2023-03-30T09:20:10;14.40;99.90
19888;DHT22;10106;51.332;12.336;2023-03-30T09:22:40;14.40;99.90
19888;DHT22;10106;51.332;12.336;2023-03-30T09:25:17;14.50;99.90
19888;DHT22;10106;51.332;12.336;2023-03-30T09:30:49;14.90;99.90
19888;DHT22;10106;51.332;12.336;2023-03-30T09:33:44;15.00;99.90
19888;DHT22;10106;51.332;12.336;2023-03-30T09:36:25;15.10;99.90
19888;DHT22;10106;51.332;12.336;2023-03-30T09:38:53;15.30;99.90
19888;DHT22;10106;51.332;12.336;2023-03-30T09:44:26;15.60;99.90
19888;DHT22;10106;51.332;12.336;2023-03-30T09:46:57;15.50;99.90
19888;DHT22;10106;51.332;12.336;2023-03-30T09:49:26;15.30;99.90
19888;DHT22;10106;51.332;12.336;2023-03-30T09:52:05;15.20;99.90
19888;DHT22;10106;51.332;12.336;2023-03-30T09:54:36;15.00;99.90
19888;DHT22;10106;51.332;12.336;2023-03-30T09:57:03;15.00;99.90
19888;DHT22;10106;51.332;12.336;2023-03-30T09:59:34;14.90;99.90
19888;DHT22;10106;51.332;12.336;2023-03-30T10:07:22;14.80;99.90
19888;DHT22;10106;51.332;12.336;2023-03-30T10:09:48;14.80;99.90
19888;DHT22;10106;51.332;12.336;2023-03-30T10:12:14;14.90;99.90
19888;DHT22;10106;51.332;12.336;2023-03-30T10:14:40;15.10;99.90
19888;DHT22;10106;51.332;12.336;2023-03-30T10:17:06;15.20;99.90
19888;DHT22;10106;51.332;12.336;2023-03-30T10:19:35;15.40;99.90
19888;DHT22;10106;51.332;12.336;2023-03-30T10:22:00;15.60;99.90
19888;DHT22;10106;51.332;12.336;2023-03-30T10:24:32;15.90;99.90
19888;DHT22;10106;51.332;12.336;2023-03-30T10:27:12;16.20;99.90
19888;DHT22;10106;51.332;12.336;2023-03-30T10:29:47;16.30;99.90
19888;DHT22;10106;51.332;12.336;2023-03-30T10:32:36;16.50;99.90
19888;DHT22;10106;51.332;12.336;2023-03-30T10:35:07;16.60;99.90
19888;DHT22;10106;51.332;12.336;2023-03-30T10:37:43;16.80;99.90
19888;DHT22;10106;51.332;12.336;2023-03-30T10:40:32;17.00;99.90
19888;DHT22;10106;51.332;12.336;2023-03-30T10:42:59;16.90;99.90
19888;DHT22;10106;51.332;12.336;2023-03-30T10:46:09;16.50;99.90
19888;DHT22;10106;51.332;12.336;2023-03-30T10:57:10;16.00;99.90
19888;DHT22;10106;51.332;12.336;2023-03-30T11:09:59;16.20;99.90
19888;DHT22;10106;51.332;12.336;2023-03-30T11:12:38;16.30;99.90
19888;DHT22;10106;51.332;12.336;2023-03-30T11:15:11;16.50;99.90
19888;DHT22;10106;51.332;12.336;2023-03-30T11:17:59;16.60;99.90
19888;DHT22;10106;51.332;12.336;2023-03-30T11:20:30;16.80;99.90
19888;DHT22;10106;51.332;12.336;2023-03-30T11:23:09;17.00;99.90
19888;DHT22;10106;51.332;12.336;2023-03-30T11:25:59;17.00;99.90
19888;DHT22;10106;51.332;12.336;2023-03-30T11:30:55;16.90;99.90
19888;DHT22;10106;51.332;12.336;2023-03-30T11:33:31;16.90;99.90
19888;DHT22;10106;51.332;12.336;2023-03-30T11:36:20;17.10;99.90
19888;DHT22;10106;51.332;12.336;2023-03-30T11:38:56;17.10;99.90
19888;DHT22;10106;51.332;12.336;2023-03-30T11:41:31;17.00;99.90
19888;DHT22;10106;51.332;12.336;2023-03-30T11:43:59;16.90;99.90
19888;DHT22;10106;51.332;12.336;2023-03-30T11:49:36;16.70;99.90
19888;DHT22;10106;51.332;12.336;2023-03-30T12:03:00;17.20;99.90
19888;DHT22;10106;51.332;12.336;2023-03-30T12:05:43;17.50;99.90
19888;DHT22;10106;51.332;12.336;2023-03-30T12:11:00;18.10;99.90
19888;DHT22;10106;51.332;12.336;2023-03-30T12:13:28;18.10;99.90
19888;DHT22;10106;51.332;12.336;2023-03-30T12:16:01;17.90;99.90
19888;DHT22;10106;51.332;12.336;2023-03-30T12:21:35;17.60;99.90
19888;DHT22;10106;51.332;12.336;2023-03-30T12:24:21;17.60;99.90
19888;DHT22;10106;51.332;12.336;2023-03-30T12:26:48;17.70;99.90
19888;DHT22;10106;51.332;12.336;2023-03-30T12:29:16;18.20;99.90
19888;DHT22;10106;51.332;12.336;2023-03-30T12:34:40;18.20;99.90
19888;DHT22;10106;51.332;12.336;2023-03-30T12:37:17;18.20;99.90
19888;DHT22;10106;51.332;12.336;2023-03-30T12:39:52;18.50;99.90
19888;DHT22;10106;51.332;12.336;2023-03-30T12:56:16;18.90;99.90
19888;DHT22;10106;51.332;12.336;2023-03-30T13:02:18;19.20;99.90
19888;DHT22;10106;51.332;12.336;2023-03-30T13:04:51;19.10;99.90
19888;DHT22;10106;51.332;12.336;2023-03-30T13:07:22;19.40;99.90
19888;DHT22;10106;51.332;12.336;2023-03-30T13:10:00;19.40;99.90
19888;DHT22;10106;51.332;12.336;2023-03-30T13:12:31;19.30;99.90
19888;DHT22;10106;51.332;12.336;2023-03-30T13:23:25;18.90;99.90
19888;DHT22;10106;51.332;12.336;2023-03-30T13:26:20;18.60;99.90
19888;DHT22;10106;51.332;12.336;2023-03-30T13:28:54;18.50;99.90
19888;DHT22;10106;51.332;12.336;2023-03-30T13:39:57;18.40;99.90
19888;DHT22;10106;51.332;12.336;2023-03-30T13:42:36;18.60;99.90
19888;DHT22;10106;51.332;12.336;2023-03-30T13:45:17;18.70;99.90
19888;DHT22;10106;51.332;12.336;2023-03-30T13:47:49;18.70;99.90
19888;DHT22;10106;51.332;12.336;2023-03-30T13:52:51;18.90;99.90
19888;DHT22;10106;51.332;12.336;2023-03-30T13:55:23;18.80;99.90
19888;DHT22;10106;51.332;12.336;2023-03-30T13:57:55;18.70;99.90
19888;DHT22;10106;51.332;12.336;2023-03-30T14:00:38;18.50;99.90
19888;DHT22;10106;51.332;12.336;2023-03-30T14:03:43;18.50;99.90
19888;DHT22;10106;51.332;12.336;2023-03-30T14:08:39;17.10;99.90
19888;DHT22;10106;51.332;12.336;2023-03-30T14:11:14;16.50;99.90
19888;DHT22;10106;51.332;12.336;2023-03-30T14:13:41;15.80;99.90
19888;DHT22;10106;51.332;12.336;2023-03-30T14:16:16;15.40;99.90
19888;DHT22;10106;51.332;12.336;2023-03-30T14:18:43;15.10;99.90
19888;DHT22;10106;51.332;12.336;2023-03-30T14:21:14;14.80;99.90
19888;DHT22;10106;51.332;12.336;2023-03-30T14:23:48;14.40;99.90
19888;DHT22;10106;51.332;12.336;2023-03-30T14:26:25;14.00;99.90
19888;DHT22;10106;51.332;12.336;2023-03-30T14:28:56;13.80;99.90
19888;DHT22;10106;51.332;12.336;2023-03-30T14:31:23;13.70;99.90
19888;DHT22;10106;51.332;12.336;2023-03-30T14:34:00;13.40;99.90
19888;DHT22;10106;51.332;12.336;2023-03-30T14:36:26;13.20;99.90
19888;DHT22;10106;51.332;12.336;2023-03-30T14:38:53;12.80;99.90
19888;DHT22;10106;51.332;12.336;2023-03-30T14:41:26;12.60;99.90
19888;DHT22;10106;51.332;12.336;2023-03-30T14:44:06;12.50;99.90
19888;DHT22;10106;51.332;12.336;2023-03-30T14:46:43;12.40;99.90
19888;DHT22;10106;51.332;12.336;2023-03-30T14:49:25;12.30;99.90
19888;DHT22;10106;51.332;12.336;2023-03-30T14:52:14;12.20;99.90
19888;DHT22;10106;51.332;12.336;2023-03-30T14:54:41;12.10;99.90
19888;DHT22;10106;51.332;12.336;2023-03-30T14:57:07;12.00;99.90
19888;DHT22;10106;51.332;12.336;2023-03-30T14:59:46;11.90;99.90
19888;DHT22;10106;51.332;12.336;2023-03-30T15:02:28;11.90;99.90
19888;DHT22;10106;51.332;12.336;2023-03-30T15:04:55;11.90;99.90
19888;DHT22;10106;51.332;12.336;2023-03-30T15:07:22;11.90;99.90
19888;DHT22;10106;51.332;12.336;2023-03-30T15:09:57;12.00;99.90
19888;DHT22;10106;51.332;12.336;2023-03-30T15:12:49;12.00;99.90
19888;DHT22;10106;51.332;12.336;2023-03-30T15:15:22;12.10;99.90
19888;DHT22;10106;51.332;12.336;2023-03-30T15:17:49;12.10;99.90
19888;DHT22;10106;51.332;12.336;2023-03-30T15:20:15;12.10;99.90
19888;DHT22;10106;51.332;12.336;2023-03-30T15:22:47;12.10;99.90
19888;DHT22;10106;51.332;12.336;2023-03-30T15:25:20;12.00;99.90
19888;DHT22;10106;51.332;12.336;2023-03-30T15:27:55;12.10;99.90
19888;DHT22;10106;51.332;12.336;2023-03-30T15:30:49;12.10;99.90
19888;DHT22;10106;51.332;12.336;2023-03-30T15:33:20;12.30;99.90
19888;DHT22;10106;51.332;12.336;2023-03-30T15:35:48;12.30;99.90
19888;DHT22;10106;51.332;12.336;2023-03-30T15:38:17;12.30;99.90
19888;DHT22;10106;51.332;12.336;2023-03-30T15:40:48;12.30;99.90
19888;DHT22;10106;51.332;12.336;2023-03-30T15:43:27;12.40;99.90
19888;DHT22;10106;51.332;12.336;2023-03-30T15:46:09;12.40;99.90
19888;DHT22;10106;51.332;12.336;2023-03-30T15:48:40;12.40;99.90
19888;DHT22;10106;51.332;12.336;2023-03-30T15:51:10;12.40;99.90
19888;DHT22;10106;51.332;12.336;2023-03-30T15:53:46;12.40;99.90
19888;DHT22;10106;51.332;12.336;2023-03-30T15:56:21;12.40;99.90
19888;DHT22;10106;51.332;12.336;2023-03-30T15:58:51;12.40;99.90
19888;DHT22;10106;51.332;12.336;2023-03-30T16:01:17;12.40;99.90
19888;DHT22;10106;51.332;12.336;2023-03-30T16:03:55;12.30;99.90
19888;DHT22;10106;51.332;12.336;2023-03-30T16:06:24;12.30;99.90
19888;DHT22;10106;51.332;12.336;2023-03-30T16:08:50;12.30;99.90
19888;DHT22;10106;51.332;12.336;2023-03-30T16:11:16;12.40;99.90
19888;DHT22;10106;51.332;12.336;2023-03-30T16:13:45;12.50;99.90
19888;DHT22;10106;51.332;12.336;2023-03-30T16:16:13;12.50;99.90
19888;DHT22;10106;51.332;12.336;2023-03-30T16:18:40;12.70;99.90
19888;DHT22;10106;51.332;12.336;2023-03-30T16:21:06;12.80;99.90
19888;DHT22;10106;51.332;12.336;2023-03-30T16:23:32;12.90;99.90
19888;DHT22;10106;51.332;12.336;2023-03-30T16:25:58;13.00;99.90
19888;DHT22;10106;51.332;12.336;2023-03-30T16:28:24;13.00;99.90
19888;DHT22;10106;51.332;12.336;2023-03-30T16:30:51;13.00;99.90
19888;DHT22;10106;51.332;12.336;2023-03-30T16:33:18;13.10;99.90
19888;DHT22;10106;51.332;12.336;2023-03-30T16:35:44;13.10;99.90
19888;DHT22;10106;51.332;12.336;2023-03-30T16:38:14;13.10;99.90
19888;DHT22;10106;51.332;12.336;2023-03-30T16:40:47;13.00;99.90
19888;DHT22;10106;51.332;12.336;2023-03-30T16:43:15;13.00;99.90
19888;DHT22;10106;51.332;12.336;2023-03-30T16:45:44;12.90;99.90
19888;DHT22;10106;51.332;12.336;2023-03-30T16:48:12;12.90;99.90
19888;DHT22;10106;51.332;12.336;2023-03-30T16:50:50;12.80;99.90
19888;DHT22;10106;51.332;12.336;2023-03-30T16:53:16;12.70;99.90
19888;DHT22;10106;51.332;12.336;2023-03-30T16:55:42;12.60;99.90
19888;DHT22;10106;51.332;12.336;2023-03-30T16:58:10;12.60;99.90
19888;DHT22;10106;51.332;12.336;2023-03-30T17:00:49;12.50;99.90
19888;DHT22;10106;51.332;12.336;2023-03-30T17:03:16;12.40;99.90
19888;DHT22;10106;51.332;12.336;2023-03-30T17:05:43;12.40;99.90
19888;DHT22;10106;51.332;12.336;2023-03-30T17:08:26;12.30;99.90
19888;DHT22;10106;51.332;12.336;2023-03-30T17:10:55;12.20;99.90
19888;DHT22;10106;51.332;12.336;2023-03-30T17:13:21;12.20;99.90
19888;DHT22;10106;51.332;12.336;2023-03-30T17:15:48;12.10;99.90
19888;DHT22;10106;51.332;12.336;2023-03-30T17:18:17;12.10;99.90
19888;DHT22;10106;51.332;12.336;2023-03-30T17:20:52;12.00;99.90
19888;DHT22;10106;51.332;12.336;2023-03-30T17:23:20;12.00;99.90
19888;DHT22;10106;51.332;12.336;2023-03-30T17:25:47;11.90;99.90
19888;DHT22;10106;51.332;12.336;2023-03-30T17:28:34;11.90;99.90
19888;DHT22;10106;51.332;12.336;2023-03-30T17:31:09;11.80;99.90
19888;DHT22;10106;51.332;12.336;2023-03-30T17:33:36;11.80;99.90
19888;DHT22;10106;51.332;12.336;2023-03-30T17:36:09;11.70;99.90
19888;DHT22;10106;51.332;12.336;2023-03-30T17:38:36;11.70;99.90
19888;DHT22;10106;51.332;12.336;2023-03-30T17:41:02;11.70;99.90
19888;DHT22;10106;51.332;12.336;2023-03-30T17:43:28;11.70;99.90
19888;DHT22;10106;51.332;12.336;2023-03-30T17:45:53;11.80;99.90
19888;DHT22;10106;51.332;12.336;2023-03-30T17:48:22;11.80;99.90
19888;DHT22;10106;51.332;12.336;2023-03-30T17:50:50;11.90;99.90
19888;DHT22;10106;51.332;12.336;2023-03-30T17:53:17;11.90;99.90
19888;DHT22;10106;51.332;12.336;2023-03-30T17:55:44;12.00;99.90
19888;DHT22;10106;51.332;12.336;2023-03-30T18:00:49;11.90;99.90
19888;DHT22;10106;51.332;12.336;2023-03-30T18:03:16;11.80;99.90
19888;DHT22;10106;51.332;12.336;2023-03-30T18:05:43;11.80;99.90
19888;DHT22;10106;51.332;12.336;2023-03-30T18:08:19;11.80;99.90
19888;DHT22;10106;51.332;12.336;2023-03-30T18:10:50;11.80;99.90